sensor_id;sensor_type;location;lat;lon;timestamp;P1;durP1;ratioP1;P2;durP2;ratioP2
18899;SDS011;9582;52.018;6.306;2024-01-11T00:00:28;21.70;;;11.80;;
18899;SDS011;9582;52.018;6.306;2024-01-11T00:02:56;23.83;;;13.17;;
18899;SDS011;9582;52.018;6.306;2024-01-11T00:05:23;20.77;;;12.87;;
18899;SDS011;9582;52.018;6.306;2024-01-11T00:07:49;21.87;;;12.13;;
18899;SDS011;9582;52.018;6.306;2024-01-11T00:10:16;25.40;;;11.13;;
18899;SDS011;9582;52.018;6.306;2024-01-11T00:12:43;20.00;;;11.90;;
18899;SDS011;9582;52.018;6.306;2024-01-11T00:15:10;24.63;;;12.93;;
18899;SDS011;9582;52.018;6.306;2024-01-11T00:17:36;22.90;;;11.17;;
18899;SDS011;9582;52.018;6.306;2024-01-11T00:20:05;23.53;;;12.50;;
18899;SDS011;9582;52.018;6.306;2024-01-11T00:22:32;21.77;;;11.93;;
18899;SDS011;9582;52.018;6.306;2024-01-11T00:24:59;20.10;;;10.60;;
18899;SDS011;9582;52.018;6.306;2024-01-11T00:27:26;24.63;;;13.33;;
18899;SDS011;9582;52.018;6.306;2024-01-11T00:29:52;21.37;;;12.23;;
18899;SDS011;9582;52.018;6.306;2024-01-11T00:32:19;21.87;;;12.93;;
18899;SDS011;9582;52.018;6.306;2024-01-11T00:34:46;21.47;;;11.67;;
18899;SDS011;9582;52.018;6.306;2024-01-11T00:37:14;21.33;;;11.83;;
18899;SDS011;9582;52.018;6.306;2024-01-11T00:39:40;22.67;;;11.80;;
18899;SDS011;9582;52.018;6.306;2024-01-11T00:42:07;18.03;;;9.33;;
18899;SDS011;9582;52.018;6.306;2024-01-11T00:44:34;20.73;;;12.17;;
18899;SDS011;9582;52.018;6.306;2024-01-11T00:47:00;19.10;;;11.23;;
18899;SDS011;9582;52.018;6.306;2024-01-11T00:49:27;20.23;;;11.07;;
18899;SDS011;9582;52.018;6.306;2024-01-11T00:51:54;21.00;;;11.50;;
18899;SDS011;9582;52.018;6.306;2024-01-11T00:54:22;21.03;;;12.23;;
18899;SDS011;9582;52.018;6.306;2024-01-11T00:56:49;22.27;;;11.13;;
18899;SDS011;9582;52.018;6.306;2024-01-11T00:59:16;21.00;;;11.00;;
18899;SDS011;9582;52.018;6.306;2024-01-11T01:01:46;21.63;;;10.50;;
18899;SDS011;9582;52.018;6.306;2024-01-11T01:04:13;18.93;;;10.83;;
18899;SDS011;9582;52.018;6.306;2024-01-11T01:06:40;18.03;;;9.23;;
18899;SDS011;9582;52.018;6.306;2024-01-11T01:09:07;20.37;;;8.80;;
18899;SDS011;9582;52.018;6.306;2024-01-11T01:11:35;20.97;;;9.50;;
18899;SDS011;9582;52.018;6.306;2024-01-11T01:14:02;20.60;;;9.50;;
18899;SDS011;9582;52.018;6.306;2024-01-11T01:16:28;19.10;;;9.60;;
18899;SDS011;9582;52.018;6.306;2024-01-11T01:18:55;19.47;;;11.07;;
18899;SDS011;9582;52.018;6.306;2024-01-11T01:21:22;20.17;;;11.20;;
18899;SDS011;9582;52.018;6.306;2024-01-11T01:23:48;20.97;;;11.47;;
18899;SDS011;9582;52.018;6.306;2024-01-11T01:26:15;19.70;;;11.37;;
18899;SDS011;9582;52.018;6.306;2024-01-11T01:28:43;20.93;;;10.73;;
18899;SDS011;9582;52.018;6.306;2024-01-11T01:31:09;19.23;;;10.73;;
18899;SDS011;9582;52.018;6.306;2024-01-11T01:33:36;20.97;;;11.37;;
18899;SDS011;9582;52.018;6.306;2024-01-11T01:36:03;20.40;;;11.23;;
18899;SDS011;9582;52.018;6.306;2024-01-11T01:38:34;21.80;;;11.87;;
18899;SDS011;9582;52.018;6.306;2024-01-11T01:41:00;20.30;;;11.37;;
18899;SDS011;9582;52.018;6.306;2024-01-11T01:43:27;20.47;;;11.27;;
18899;SDS011;9582;52.018;6.306;2024-01-11T01:45:55;19.40;;;10.60;;
18899;SDS011;9582;52.018;6.306;2024-01-11T01:48:22;19.70;;;10.77;;
18899;SDS011;9582;52.018;6.306;2024-01-11T01:50:49;20.27;;;10.77;;
18899;SDS011;9582;52.018;6.306;2024-01-11T01:53:16;20.00;;;9.87;;
18899;SDS011;9582;52.018;6.306;2024-01-11T01:55:44;16.93;;;8.43;;
18899;SDS011;9582;52.018;6.306;2024-01-11T01:58:11;20.03;;;11.23;;
18899;SDS011;9582;52.018;6.306;2024-01-11T02:00:39;22.47;;;11.23;;
18899;SDS011;9582;52.018;6.306;2024-01-11T02:03:08;20.13;;;9.90;;
18899;SDS011;9582;52.018;6.306;2024-01-11T02:05:35;20.40;;;9.90;;
18899;SDS011;9582;52.018;6.306;2024-01-11T02:08:03;17.87;;;9.50;;
18899;SDS011;9582;52.018;6.306;2024-01-11T02:10:34;18.97;;;10.43;;
18899;SDS011;9582;52.018;6.306;2024-01-11T02:13:01;17.00;;;10.47;;
18899;SDS011;9582;52.018;6.306;2024-01-11T02:15:28;17.10;;;10.37;;
18899;SDS011;9582;52.018;6.306;2024-01-11T02:17:55;18.93;;;10.27;;
18899;SDS011;9582;52.018;6.306;2024-01-11T02:20:23;16.50;;;10.00;;
18899;SDS011;9582;52.018;6.306;2024-01-11T02:22:50;20.93;;;10.93;;
18899;SDS011;9582;52.018;6.306;2024-01-11T02:25:23;18.47;;;10.57;;
18899;SDS011;9582;52.018;6.306;2024-01-11T02:27:50;21.90;;;10.57;;
18899;SDS011;9582;52.018;6.306;2024-01-11T02:30:16;19.30;;;10.53;;
18899;SDS011;9582;52.018;6.306;2024-01-11T02:32:44;17.87;;;10.60;;
18899;SDS011;9582;52.018;6.306;2024-01-11T02:35:12;19.27;;;11.03;;
18899;SDS011;9582;52.018;6.306;2024-01-11T02:37:39;21.17;;;10.63;;
18899;SDS011;9582;52.018;6.306;2024-01-11T02:40:06;15.40;;;10.10;;
18899;SDS011;9582;52.018;6.306;2024-01-11T02:42:36;21.23;;;11.00;;
18899;SDS011;9582;52.018;6.306;2024-01-11T02:45:03;18.80;;;11.23;;
18899;SDS011;9582;52.018;6.306;2024-01-11T02:47:30;21.60;;;11.53;;
18899;SDS011;9582;52.018;6.306;2024-01-11T02:49:56;20.13;;;11.27;;
18899;SDS011;9582;52.018;6.306;2024-01-11T02:52:23;21.07;;;10.97;;
18899;SDS011;9582;52.018;6.306;2024-01-11T02:54:50;25.10;;;11.40;;
18899;SDS011;9582;52.018;6.306;2024-01-11T02:57:16;23.37;;;11.63;;
18899;SDS011;9582;52.018;6.306;2024-01-11T02:59:44;21.67;;;11.57;;
18899;SDS011;9582;52.018;6.306;2024-01-11T03:02:11;20.87;;;11.67;;
18899;SDS011;9582;52.018;6.306;2024-01-11T03:04:37;20.50;;;11.47;;
18899;SDS011;9582;52.018;6.306;2024-01-11T03:07:04;18.67;;;10.73;;
18899;SDS011;9582;52.018;6.306;2024-01-11T03:09:31;22.03;;;11.33;;
18899;SDS011;9582;52.018;6.306;2024-01-11T03:11:58;21.83;;;11.50;;
18899;SDS011;9582;52.018;6.306;2024-01-11T03:14:25;17.60;;;10.60;;
18899;SDS011;9582;52.018;6.306;2024-01-11T03:16:53;18.67;;;10.00;;
18899;SDS011;9582;52.018;6.306;2024-01-11T03:19:19;21.63;;;11.60;;
18899;SDS011;9582;52.018;6.306;2024-01-11T03:21:46;23.00;;;11.70;;
18899;SDS011;9582;52.018;6.306;2024-01-11T03:24:13;22.50;;;11.40;;
18899;SDS011;9582;52.018;6.306;2024-01-11T03:26:40;18.83;;;11.20;;
18899;SDS011;9582;52.018;6.306;2024-01-11T03:29:07;20.17;;;12.30;;
18899;SDS011;9582;52.018;6.306;2024-01-11T03:31:34;24.30;;;11.33;;
18899;SDS011;9582;52.018;6.306;2024-01-11T03:34:02;23.33;;;12.43;;
18899;SDS011;9582;52.018;6.306;2024-01-11T03:36:28;22.50;;;12.73;;
18899;SDS011;9582;52.018;6.306;2024-01-11T03:38:55;23.43;;;12.43;;
18899;SDS011;9582;52.018;6.306;2024-01-11T03:41:21;20.70;;;11.37;;
18899;SDS011;9582;52.018;6.306;2024-01-11T03:43:49;21.23;;;12.27;;
18899;SDS011;9582;52.018;6.306;2024-01-11T03:46:16;23.13;;;11.60;;
18899;SDS011;9582;52.018;6.306;2024-01-11T03:48:42;19.20;;;11.50;;
18899;SDS011;9582;52.018;6.306;2024-01-11T03:51:10;24.13;;;12.27;;
18899;SDS011;9582;52.018;6.306;2024-01-11T03:53:37;21.43;;;11.37;;
18899;SDS011;9582;52.018;6.306;2024-01-11T03:56:04;17.90;;;8.70;;
18899;SDS011;9582;52.018;6.306;2024-01-11T03:58:30;21.70;;;11.13;;
18899;SDS011;9582;52.018;6.306;2024-01-11T04:00:57;20.10;;;10.27;;
18899;SDS011;9582;52.018;6.306;2024-01-11T04:03:24;19.50;;;10.67;;
18899;SDS011;9582;52.018;6.306;2024-01-11T04:05:51;22.20;;;10.97;;
18899;SDS011;9582;52.018;6.306;2024-01-11T04:08:19;20.63;;;9.63;;
18899;SDS011;9582;52.018;6.306;2024-01-11T04:10:46;18.53;;;10.80;;
18899;SDS011;9582;52.018;6.306;2024-01-11T04:13:12;18.27;;;11.00;;
18899;SDS011;9582;52.018;6.306;2024-01-11T04:15:39;18.27;;;9.87;;
18899;SDS011;9582;52.018;6.306;2024-01-11T04:18:05;16.37;;;9.80;;
18899;SDS011;9582;52.018;6.306;2024-01-11T04:20:32;20.10;;;11.07;;
18899;SDS011;9582;52.018;6.306;2024-01-11T04:22:59;20.50;;;10.63;;
18899;SDS011;9582;52.018;6.306;2024-01-11T04:25:27;26.63;;;11.63;;
18899;SDS011;9582;52.018;6.306;2024-01-11T04:27:53;18.33;;;10.93;;
18899;SDS011;9582;52.018;6.306;2024-01-11T04:30:20;17.27;;;11.07;;
18899;SDS011;9582;52.018;6.306;2024-01-11T04:32:46;21.93;;;12.43;;
18899;SDS011;9582;52.018;6.306;2024-01-11T04:35:13;22.00;;;11.47;;
18899;SDS011;9582;52.018;6.306;2024-01-11T04:37:40;16.83;;;9.80;;
18899;SDS011;9582;52.018;6.306;2024-01-11T04:40:07;20.90;;;11.43;;
18899;SDS011;9582;52.018;6.306;2024-01-11T04:42:35;19.73;;;11.13;;
18899;SDS011;9582;52.018;6.306;2024-01-11T04:45:02;21.00;;;11.73;;
18899;SDS011;9582;52.018;6.306;2024-01-11T04:47:30;24.00;;;12.23;;
18899;SDS011;9582;52.018;6.306;2024-01-11T04:49:57;22.17;;;11.10;;
18899;SDS011;9582;52.018;6.306;2024-01-11T04:52:24;18.73;;;11.90;;
18899;SDS011;9582;52.018;6.306;2024-01-11T04:54:50;25.27;;;12.87;;
18899;SDS011;9582;52.018;6.306;2024-01-11T04:57:17;24.60;;;12.80;;
18899;SDS011;9582;52.018;6.306;2024-01-11T04:59:45;20.40;;;10.70;;
18899;SDS011;9582;52.018;6.306;2024-01-11T05:02:11;21.87;;;11.93;;
18899;SDS011;9582;52.018;6.306;2024-01-11T05:04:38;23.70;;;11.80;;
18899;SDS011;9582;52.018;6.306;2024-01-11T05:07:05;21.03;;;12.10;;
18899;SDS011;9582;52.018;6.306;2024-01-11T05:09:31;22.03;;;11.83;;
18899;SDS011;9582;52.018;6.306;2024-01-11T05:11:58;21.40;;;10.97;;
18899;SDS011;9582;52.018;6.306;2024-01-11T05:14:25;23.23;;;12.03;;
18899;SDS011;9582;52.018;6.306;2024-01-11T05:16:52;22.07;;;12.53;;
18899;SDS011;9582;52.018;6.306;2024-01-11T05:19:19;24.63;;;12.40;;
18899;SDS011;9582;52.018;6.306;2024-01-11T05:21:46;20.93;;;12.30;;
18899;SDS011;9582;52.018;6.306;2024-01-11T05:24:12;22.30;;;12.10;;
18899;SDS011;9582;52.018;6.306;2024-01-11T05:26:39;21.70;;;12.23;;
18899;SDS011;9582;52.018;6.306;2024-01-11T05:29:06;21.10;;;12.40;;
18899;SDS011;9582;52.018;6.306;2024-01-11T05:31:32;21.37;;;12.23;;
18899;SDS011;9582;52.018;6.306;2024-01-11T05:34:00;22.13;;;11.83;;
18899;SDS011;9582;52.018;6.306;2024-01-11T05:36:28;23.57;;;12.70;;
18899;SDS011;9582;52.018;6.306;2024-01-11T05:38:55;21.20;;;11.80;;
18899;SDS011;9582;52.018;6.306;2024-01-11T05:41:21;23.53;;;11.90;;
18899;SDS011;9582;52.018;6.306;2024-01-11T05:43:48;23.43;;;12.07;;
18899;SDS011;9582;52.018;6.306;2024-01-11T05:46:14;21.57;;;12.03;;
18899;SDS011;9582;52.018;6.306;2024-01-11T05:48:41;23.23;;;12.87;;
18899;SDS011;9582;52.018;6.306;2024-01-11T05:51:09;21.97;;;11.93;;
18899;SDS011;9582;52.018;6.306;2024-01-11T05:53:35;22.17;;;12.00;;
18899;SDS011;9582;52.018;6.306;2024-01-11T05:56:02;24.77;;;11.90;;
18899;SDS011;9582;52.018;6.306;2024-01-11T05:58:33;21.37;;;12.23;;
18899;SDS011;9582;52.018;6.306;2024-01-11T06:01:02;22.57;;;12.13;;
18899;SDS011;9582;52.018;6.306;2024-01-11T06:03:29;26.30;;;12.93;;
18899;SDS011;9582;52.018;6.306;2024-01-11T06:05:59;25.00;;;13.33;;
18899;SDS011;9582;52.018;6.306;2024-01-11T06:08:28;18.90;;;10.00;;
18899;SDS011;9582;52.018;6.306;2024-01-11T06:10:55;20.57;;;10.00;;
18899;SDS011;9582;52.018;6.306;2024-01-11T06:13:22;34.77;;;12.93;;
18899;SDS011;9582;52.018;6.306;2024-01-11T06:15:48;57.03;;;13.37;;
18899;SDS011;9582;52.018;6.306;2024-01-11T06:18:15;30.43;;;11.53;;
18899;SDS011;9582;52.018;6.306;2024-01-11T06:20:42;30.50;;;10.60;;
18899;SDS011;9582;52.018;6.306;2024-01-11T06:23:09;48.33;;;14.40;;
18899;SDS011;9582;52.018;6.306;2024-01-11T06:25:37;47.53;;;14.47;;
18899;SDS011;9582;52.018;6.306;2024-01-11T06:28:04;54.13;;;15.40;;
18899;SDS011;9582;52.018;6.306;2024-01-11T06:30:31;65.47;;;16.63;;
18899;SDS011;9582;52.018;6.306;2024-01-11T06:32:58;89.53;;;16.27;;
18899;SDS011;9582;52.018;6.306;2024-01-11T06:35:25;95.37;;;17.30;;
18899;SDS011;9582;52.018;6.306;2024-01-11T06:37:51;49.93;;;15.57;;
18899;SDS011;9582;52.018;6.306;2024-01-11T06:40:18;47.33;;;14.43;;
18899;SDS011;9582;52.018;6.306;2024-01-11T06:42:47;39.03;;;13.67;;
18899;SDS011;9582;52.018;6.306;2024-01-11T06:45:13;33.27;;;14.20;;
18899;SDS011;9582;52.018;6.306;2024-01-11T06:47:40;22.37;;;8.97;;
18899;SDS011;9582;52.018;6.306;2024-01-11T06:50:07;25.00;;;11.17;;
18899;SDS011;9582;52.018;6.306;2024-01-11T06:52:34;26.73;;;12.70;;
18899;SDS011;9582;52.018;6.306;2024-01-11T06:55:01;32.53;;;13.40;;
18899;SDS011;9582;52.018;6.306;2024-01-11T06:57:28;31.00;;;12.73;;
18899;SDS011;9582;52.018;6.306;2024-01-11T06:59:56;29.80;;;13.13;;
18899;SDS011;9582;52.018;6.306;2024-01-11T07:02:22;33.40;;;13.17;;
18899;SDS011;9582;52.018;6.306;2024-01-11T07:04:49;27.47;;;13.47;;
18899;SDS011;9582;52.018;6.306;2024-01-11T07:07:15;27.40;;;14.47;;
18899;SDS011;9582;52.018;6.306;2024-01-11T07:09:42;27.67;;;13.13;;
18899;SDS011;9582;52.018;6.306;2024-01-11T07:12:09;33.97;;;14.47;;
18899;SDS011;9582;52.018;6.306;2024-01-11T07:14:36;28.17;;;14.60;;
18899;SDS011;9582;52.018;6.306;2024-01-11T07:17:04;26.13;;;13.77;;
18899;SDS011;9582;52.018;6.306;2024-01-11T07:19:30;26.73;;;14.23;;
18899;SDS011;9582;52.018;6.306;2024-01-11T07:21:57;25.93;;;13.40;;
18899;SDS011;9582;52.018;6.306;2024-01-11T07:24:24;24.03;;;12.10;;
18899;SDS011;9582;52.018;6.306;2024-01-11T07:26:51;22.87;;;10.73;;
18899;SDS011;9582;52.018;6.306;2024-01-11T07:29:18;27.43;;;14.37;;
18899;SDS011;9582;52.018;6.306;2024-01-11T07:31:45;27.53;;;14.20;;
18899;SDS011;9582;52.018;6.306;2024-01-11T07:34:13;27.30;;;13.97;;
18899;SDS011;9582;52.018;6.306;2024-01-11T07:36:40;24.20;;;14.33;;
18899;SDS011;9582;52.018;6.306;2024-01-11T07:39:06;25.27;;;14.20;;
18899;SDS011;9582;52.018;6.306;2024-01-11T07:41:33;31.70;;;15.67;;
18899;SDS011;9582;52.018;6.306;2024-01-11T07:43:59;26.70;;;15.20;;
18899;SDS011;9582;52.018;6.306;2024-01-11T07:46:26;32.97;;;16.27;;
18899;SDS011;9582;52.018;6.306;2024-01-11T07:48:53;33.07;;;16.37;;
18899;SDS011;9582;52.018;6.306;2024-01-11T07:51:21;30.20;;;13.23;;
18899;SDS011;9582;52.018;6.306;2024-01-11T07:53:47;28.07;;;15.80;;
18899;SDS011;9582;52.018;6.306;2024-01-11T07:56:14;28.17;;;13.57;;
18899;SDS011;9582;52.018;6.306;2024-01-11T07:58:40;29.37;;;12.80;;
18899;SDS011;9582;52.018;6.306;2024-01-11T08:01:08;26.70;;;13.57;;
18899;SDS011;9582;52.018;6.306;2024-01-11T08:03:35;26.20;;;14.80;;
18899;SDS011;9582;52.018;6.306;2024-01-11T08:06:02;21.87;;;12.67;;
18899;SDS011;9582;52.018;6.306;2024-01-11T08:08:31;30.40;;;16.17;;
18899;SDS011;9582;52.018;6.306;2024-01-11T08:10:57;29.33;;;15.70;;
18899;SDS011;9582;52.018;6.306;2024-01-11T08:13:24;26.63;;;15.33;;
18899;SDS011;9582;52.018;6.306;2024-01-11T08:15:51;31.10;;;14.83;;
18899;SDS011;9582;52.018;6.306;2024-01-11T08:18:18;26.63;;;14.77;;
18899;SDS011;9582;52.018;6.306;2024-01-11T08:20:45;27.60;;;16.00;;
18899;SDS011;9582;52.018;6.306;2024-01-11T08:23:13;13.47;;;7.33;;
18899;SDS011;9582;52.018;6.306;2024-01-11T08:25:41;28.37;;;14.87;;
18899;SDS011;9582;52.018;6.306;2024-01-11T08:28:08;25.57;;;11.67;;
18899;SDS011;9582;52.018;6.306;2024-01-11T08:30:34;17.00;;;8.67;;
18899;SDS011;9582;52.018;6.306;2024-01-11T08:33:01;20.80;;;10.40;;
18899;SDS011;9582;52.018;6.306;2024-01-11T08:35:29;19.07;;;8.63;;
18899;SDS011;9582;52.018;6.306;2024-01-11T08:37:57;31.43;;;16.20;;
18899;SDS011;9582;52.018;6.306;2024-01-11T08:40:24;27.97;;;14.73;;
18899;SDS011;9582;52.018;6.306;2024-01-11T08:42:52;24.27;;;11.30;;
18899;SDS011;9582;52.018;6.306;2024-01-11T08:45:19;17.43;;;8.80;;
18899;SDS011;9582;52.018;6.306;2024-01-11T08:47:47;25.20;;;12.07;;
18899;SDS011;9582;52.018;6.306;2024-01-11T08:50:14;5.93;;;4.30;;
18899;SDS011;9582;52.018;6.306;2024-01-11T08:52:41;17.53;;;9.40;;
18899;SDS011;9582;52.018;6.306;2024-01-11T08:55:08;21.70;;;10.90;;
18899;SDS011;9582;52.018;6.306;2024-01-11T08:57:35;17.83;;;9.83;;
18899;SDS011;9582;52.018;6.306;2024-01-11T09:00:04;13.57;;;7.90;;
18899;SDS011;9582;52.018;6.306;2024-01-11T09:02:31;16.30;;;8.13;;
18899;SDS011;9582;52.018;6.306;2024-01-11T09:04:58;18.13;;;9.57;;
18899;SDS011;9582;52.018;6.306;2024-01-11T09:07:25;26.47;;;14.53;;
18899;SDS011;9582;52.018;6.306;2024-01-11T09:09:52;7.53;;;4.50;;
18899;SDS011;9582;52.018;6.306;2024-01-11T09:12:19;15.17;;;8.97;;
18899;SDS011;9582;52.018;6.306;2024-01-11T09:14:46;23.53;;;12.77;;
18899;SDS011;9582;52.018;6.306;2024-01-11T09:17:14;11.60;;;6.20;;
18899;SDS011;9582;52.018;6.306;2024-01-11T09:19:41;36.20;;;18.30;;
18899;SDS011;9582;52.018;6.306;2024-01-11T09:22:08;22.97;;;11.73;;
18899;SDS011;9582;52.018;6.306;2024-01-11T09:24:35;23.70;;;12.90;;
18899;SDS011;9582;52.018;6.306;2024-01-11T09:27:01;26.80;;;14.83;;
18899;SDS011;9582;52.018;6.306;2024-01-11T09:29:29;34.50;;;16.93;;
18899;SDS011;9582;52.018;6.306;2024-01-11T09:31:55;23.17;;;12.77;;
18899;SDS011;9582;52.018;6.306;2024-01-11T09:34:23;34.17;;;17.40;;
18899;SDS011;9582;52.018;6.306;2024-01-11T09:36:50;28.43;;;13.97;;
18899;SDS011;9582;52.018;6.306;2024-01-11T09:39:17;17.83;;;10.10;;
18899;SDS011;9582;52.018;6.306;2024-01-11T09:41:47;24.50;;;12.93;;
18899;SDS011;9582;52.018;6.306;2024-01-11T09:44:18;12.30;;;7.27;;
18899;SDS011;9582;52.018;6.306;2024-01-11T09:46:45;35.17;;;17.63;;
18899;SDS011;9582;52.018;6.306;2024-01-11T09:49:13;34.00;;;17.53;;
18899;SDS011;9582;52.018;6.306;2024-01-11T09:51:44;25.60;;;13.83;;
18899;SDS011;9582;52.018;6.306;2024-01-11T09:54:12;35.83;;;17.97;;
18899;SDS011;9582;52.018;6.306;2024-01-11T09:56:41;33.53;;;16.70;;
18899;SDS011;9582;52.018;6.306;2024-01-11T09:59:09;36.13;;;19.77;;
18899;SDS011;9582;52.018;6.306;2024-01-11T10:01:37;33.10;;;18.57;;
18899;SDS011;9582;52.018;6.306;2024-01-11T10:04:04;32.17;;;15.87;;
18899;SDS011;9582;52.018;6.306;2024-01-11T10:06:31;29.67;;;15.73;;
18899;SDS011;9582;52.018;6.306;2024-01-11T10:09:01;34.13;;;16.73;;
18899;SDS011;9582;52.018;6.306;2024-01-11T10:11:27;30.20;;;16.30;;
18899;SDS011;9582;52.018;6.306;2024-01-11T10:13:55;25.23;;;11.27;;
18899;SDS011;9582;52.018;6.306;2024-01-11T10:16:22;29.67;;;15.23;;
18899;SDS011;9582;52.018;6.306;2024-01-11T10:18:49;19.57;;;9.50;;
18899;SDS011;9582;52.018;6.306;2024-01-11T10:21:16;35.20;;;16.73;;
18899;SDS011;9582;52.018;6.306;2024-01-11T10:23:42;28.40;;;15.63;;
18899;SDS011;9582;52.018;6.306;2024-01-11T10:26:10;31.50;;;16.60;;
18899;SDS011;9582;52.018;6.306;2024-01-11T10:28:37;26.67;;;15.77;;
18899;SDS011;9582;52.018;6.306;2024-01-11T10:31:04;27.87;;;16.53;;
18899;SDS011;9582;52.018;6.306;2024-01-11T10:33:32;31.17;;;16.70;;
18899;SDS011;9582;52.018;6.306;2024-01-11T10:36:00;29.07;;;15.87;;
18899;SDS011;9582;52.018;6.306;2024-01-11T10:38:28;28.03;;;14.80;;
18899;SDS011;9582;52.018;6.306;2024-01-11T10:40:58;20.53;;;10.93;;
18899;SDS011;9582;52.018;6.306;2024-01-11T10:43:27;24.20;;;13.73;;
18899;SDS011;9582;52.018;6.306;2024-01-11T10:45:58;18.73;;;9.87;;
18899;SDS011;9582;52.018;6.306;2024-01-11T10:48:28;17.13;;;8.57;;
18899;SDS011;9582;52.018;6.306;2024-01-11T10:50:58;12.90;;;6.80;;
18899;SDS011;9582;52.018;6.306;2024-01-11T10:53:28;14.40;;;7.60;;
18899;SDS011;9582;52.018;6.306;2024-01-11T10:56:03;20.80;;;10.67;;
18899;SDS011;9582;52.018;6.306;2024-01-11T10:58:34;17.13;;;7.70;;
18899;SDS011;9582;52.018;6.306;2024-01-11T11:01:01;17.70;;;8.90;;
18899;SDS011;9582;52.018;6.306;2024-01-11T11:03:29;20.97;;;9.30;;
18899;SDS011;9582;52.018;6.306;2024-01-11T11:05:58;27.53;;;12.10;;
18899;SDS011;9582;52.018;6.306;2024-01-11T11:08:25;21.50;;;10.30;;
18899;SDS011;9582;52.018;6.306;2024-01-11T11:10:54;19.50;;;9.17;;
18899;SDS011;9582;52.018;6.306;2024-01-11T11:13:22;22.07;;;10.13;;
18899;SDS011;9582;52.018;6.306;2024-01-11T11:15:50;22.77;;;10.73;;
18899;SDS011;9582;52.018;6.306;2024-01-11T11:18:18;14.73;;;7.73;;
18899;SDS011;9582;52.018;6.306;2024-01-11T11:20:46;33.00;;;13.30;;
18899;SDS011;9582;52.018;6.306;2024-01-11T11:23:14;23.80;;;12.37;;
18899;SDS011;9582;52.018;6.306;2024-01-11T11:25:43;29.30;;;12.50;;
18899;SDS011;9582;52.018;6.306;2024-01-11T11:28:12;31.93;;;13.53;;
18899;SDS011;9582;52.018;6.306;2024-01-11T11:30:40;24.33;;;11.03;;
18899;SDS011;9582;52.018;6.306;2024-01-11T11:33:10;26.30;;;11.83;;
18899;SDS011;9582;52.018;6.306;2024-01-11T11:35:41;26.43;;;11.20;;
18899;SDS011;9582;52.018;6.306;2024-01-11T11:38:09;27.17;;;11.97;;
18899;SDS011;9582;52.018;6.306;2024-01-11T11:40:43;22.60;;;9.77;;
18899;SDS011;9582;52.018;6.306;2024-01-11T11:43:14;24.10;;;10.97;;
18899;SDS011;9582;52.018;6.306;2024-01-11T11:45:42;23.63;;;10.43;;
18899;SDS011;9582;52.018;6.306;2024-01-11T11:51:20;23.83;;;10.73;;
18899;SDS011;9582;52.018;6.306;2024-01-11T11:53:48;26.27;;;10.83;;
18899;SDS011;9582;52.018;6.306;2024-01-11T11:56:16;27.50;;;12.03;;
18899;SDS011;9582;52.018;6.306;2024-01-11T11:58:45;23.93;;;9.50;;
18899;SDS011;9582;52.018;6.306;2024-01-11T12:01:13;25.80;;;11.23;;
18899;SDS011;9582;52.018;6.306;2024-01-11T12:03:42;23.27;;;10.53;;
18899;SDS011;9582;52.018;6.306;2024-01-11T12:06:15;28.63;;;10.70;;
18899;SDS011;9582;52.018;6.306;2024-01-11T12:08:43;28.33;;;11.50;;
18899;SDS011;9582;52.018;6.306;2024-01-11T12:11:12;31.13;;;11.43;;
18899;SDS011;9582;52.018;6.306;2024-01-11T12:13:40;29.20;;;11.93;;
18899;SDS011;9582;52.018;6.306;2024-01-11T12:16:06;35.33;;;12.57;;
18899;SDS011;9582;52.018;6.306;2024-01-11T12:18:32;28.07;;;10.70;;
18899;SDS011;9582;52.018;6.306;2024-01-11T12:20:59;27.77;;;10.67;;
18899;SDS011;9582;52.018;6.306;2024-01-11T12:23:28;31.30;;;11.90;;
18899;SDS011;9582;52.018;6.306;2024-01-11T12:25:56;34.33;;;12.63;;
18899;SDS011;9582;52.018;6.306;2024-01-11T12:28:23;30.23;;;12.73;;
18899;SDS011;9582;52.018;6.306;2024-01-11T12:30:50;36.63;;;12.77;;
18899;SDS011;9582;52.018;6.306;2024-01-11T12:33:17;32.10;;;12.60;;
18899;SDS011;9582;52.018;6.306;2024-01-11T12:35:44;39.57;;;13.30;;
18899;SDS011;9582;52.018;6.306;2024-01-11T12:38:11;26.17;;;12.77;;
18899;SDS011;9582;52.018;6.306;2024-01-11T12:40:39;30.50;;;13.37;;
18899;SDS011;9582;52.018;6.306;2024-01-11T12:43:06;34.57;;;13.43;;
18899;SDS011;9582;52.018;6.306;2024-01-11T12:45:34;39.53;;;14.67;;
18899;SDS011;9582;52.018;6.306;2024-01-11T12:48:02;47.53;;;17.60;;
18899;SDS011;9582;52.018;6.306;2024-01-11T12:50:29;42.77;;;18.63;;
18899;SDS011;9582;52.018;6.306;2024-01-11T12:53:07;40.63;;;17.73;;
18899;SDS011;9582;52.018;6.306;2024-01-11T12:55:35;34.77;;;13.70;;
18899;SDS011;9582;52.018;6.306;2024-01-11T12:58:07;35.93;;;13.60;;
18899;SDS011;9582;52.018;6.306;2024-01-11T13:00:35;34.93;;;12.33;;
18899;SDS011;9582;52.018;6.306;2024-01-11T13:03:02;33.07;;;13.37;;
18899;SDS011;9582;52.018;6.306;2024-01-11T13:05:29;32.47;;;12.87;;
18899;SDS011;9582;52.018;6.306;2024-01-11T13:08:00;28.60;;;12.97;;
18899;SDS011;9582;52.018;6.306;2024-01-11T13:10:27;32.37;;;13.60;;
18899;SDS011;9582;52.018;6.306;2024-01-11T13:12:54;31.30;;;12.70;;
18899;SDS011;9582;52.018;6.306;2024-01-11T13:15:22;33.20;;;13.03;;
18899;SDS011;9582;52.018;6.306;2024-01-11T13:17:49;31.97;;;13.33;;
18899;SDS011;9582;52.018;6.306;2024-01-11T13:20:16;31.37;;;13.40;;
18899;SDS011;9582;52.018;6.306;2024-01-11T13:22:43;33.87;;;13.00;;
18899;SDS011;9582;52.018;6.306;2024-01-11T13:25:10;34.67;;;14.60;;
18899;SDS011;9582;52.018;6.306;2024-01-11T13:27:37;35.63;;;14.07;;
18899;SDS011;9582;52.018;6.306;2024-01-11T13:30:04;31.17;;;14.43;;
18899;SDS011;9582;52.018;6.306;2024-01-11T13:32:34;31.87;;;13.13;;
18899;SDS011;9582;52.018;6.306;2024-01-11T13:35:01;36.57;;;15.37;;
18899;SDS011;9582;52.018;6.306;2024-01-11T13:37:29;33.37;;;13.70;;
18899;SDS011;9582;52.018;6.306;2024-01-11T13:39:56;35.70;;;14.53;;
18899;SDS011;9582;52.018;6.306;2024-01-11T13:42:22;36.97;;;13.77;;
18899;SDS011;9582;52.018;6.306;2024-01-11T13:44:49;35.90;;;14.77;;
18899;SDS011;9582;52.018;6.306;2024-01-11T13:47:16;30.70;;;14.30;;
18899;SDS011;9582;52.018;6.306;2024-01-11T13:49:44;35.93;;;13.83;;
18899;SDS011;9582;52.018;6.306;2024-01-11T13:52:10;34.13;;;13.43;;
18899;SDS011;9582;52.018;6.306;2024-01-11T13:54:37;35.57;;;14.00;;
18899;SDS011;9582;52.018;6.306;2024-01-11T13:57:04;33.53;;;13.77;;
18899;SDS011;9582;52.018;6.306;2024-01-11T13:59:32;36.87;;;14.53;;
18899;SDS011;9582;52.018;6.306;2024-01-11T14:01:58;33.30;;;14.37;;
18899;SDS011;9582;52.018;6.306;2024-01-11T14:04:25;29.70;;;13.50;;
18899;SDS011;9582;52.018;6.306;2024-01-11T14:06:53;31.33;;;12.87;;
18899;SDS011;9582;52.018;6.306;2024-01-11T14:09:20;32.77;;;13.50;;
18899;SDS011;9582;52.018;6.306;2024-01-11T14:11:47;32.23;;;14.00;;
18899;SDS011;9582;52.018;6.306;2024-01-11T14:14:14;33.60;;;13.53;;
18899;SDS011;9582;52.018;6.306;2024-01-11T14:16:43;29.83;;;13.97;;
18899;SDS011;9582;52.018;6.306;2024-01-11T14:19:10;30.17;;;14.17;;
18899;SDS011;9582;52.018;6.306;2024-01-11T14:21:37;30.10;;;12.83;;
18899;SDS011;9582;52.018;6.306;2024-01-11T14:24:05;31.57;;;14.13;;
18899;SDS011;9582;52.018;6.306;2024-01-11T14:26:32;32.10;;;12.87;;
18899;SDS011;9582;52.018;6.306;2024-01-11T14:28:59;29.60;;;12.77;;
18899;SDS011;9582;52.018;6.306;2024-01-11T14:31:26;33.40;;;13.83;;
18899;SDS011;9582;52.018;6.306;2024-01-11T14:33:52;32.80;;;14.70;;
18899;SDS011;9582;52.018;6.306;2024-01-11T14:36:19;34.83;;;13.90;;
18899;SDS011;9582;52.018;6.306;2024-01-11T14:38:46;29.47;;;14.00;;